sensor_id;sensor_type;location;lat;lon;timestamp;P1;durP1;ratioP1;P2;durP2;ratioP2
54247;SDS011;40161;39.768;2.722;2023-03-01T00:00:14;18.30;;;4.82;;
54247;SDS011;40161;39.768;2.722;2023-03-01T00:02:40;15.57;;;5.20;;
54247;SDS011;40161;39.768;2.722;2023-03-01T00:05:06;9.65;;;4.28;;
54247;SDS011;40161;39.768;2.722;2023-03-01T00:07:32;8.85;;;3.60;;
54247;SDS011;40161;39.768;2.722;2023-03-01T00:09:58;11.48;;;3.80;;
54247;SDS011;40161;39.768;2.722;2023-03-01T00:12:24;9.00;;;3.47;;
54247;SDS011;40161;39.768;2.722;2023-03-01T00:14:49;15.07;;;6.72;;
54247;SDS011;40161;39.768;2.722;2023-03-01T00:17:15;17.30;;;7.47;;
54247;SDS011;40161;39.768;2.722;2023-03-01T00:19:42;15.70;;;5.68;;
54247;SDS011;40161;39.768;2.722;2023-03-01T00:22:07;10.75;;;4.60;;
54247;SDS011;40161;39.768;2.722;2023-03-01T00:24:33;12.27;;;6.35;;
54247;SDS011;40161;39.768;2.722;2023-03-01T00:26:59;22.90;;;10.55;;
54247;SDS011;40161;39.768;2.722;2023-03-01T00:29:24;18.02;;;6.85;;
54247;SDS011;40161;39.768;2.722;2023-03-01T00:31:50;10.65;;;3.78;;
54247;SDS011;40161;39.768;2.722;2023-03-01T00:34:16;10.13;;;3.70;;
54247;SDS011;40161;39.768;2.722;2023-03-01T00:36:41;12.43;;;5.15;;
54247;SDS011;40161;39.768;2.722;2023-03-01T00:39:09;16.98;;;7.05;;
54247;SDS011;40161;39.768;2.722;2023-03-01T00:41:37;16.33;;;6.75;;
54247;SDS011;40161;39.768;2.722;2023-03-01T00:44:03;19.65;;;7.72;;
54247;SDS011;40161;39.768;2.722;2023-03-01T00:46:29;18.05;;;7.30;;
54247;SDS011;40161;39.768;2.722;2023-03-01T00:48:57;21.42;;;8.30;;
54247;SDS011;40161;39.768;2.722;2023-03-01T00:51:24;16.98;;;7.05;;
54247;SDS011;40161;39.768;2.722;2023-03-01T00:53:51;14.68;;;5.32;;
54247;SDS011;40161;39.768;2.722;2023-03-01T00:56:21;11.35;;;4.50;;
54247;SDS011;40161;39.768;2.722;2023-03-01T00:58:48;13.63;;;4.80;;
54247;SDS011;40161;39.768;2.722;2023-03-01T01:01:15;11.23;;;4.85;;
54247;SDS011;40161;39.768;2.722;2023-03-01T01:03:45;8.07;;;4.15;;
54247;SDS011;40161;39.768;2.722;2023-03-01T01:06:16;9.57;;;3.70;;
54247;SDS011;40161;39.768;2.722;2023-03-01T01:08:42;7.50;;;2.85;;
54247;SDS011;40161;39.768;2.722;2023-03-01T01:11:09;12.45;;;3.53;;
54247;SDS011;40161;39.768;2.722;2023-03-01T01:13:36;7.35;;;3.20;;
54247;SDS011;40161;39.768;2.722;2023-03-01T01:16:02;7.78;;;3.10;;
54247;SDS011;40161;39.768;2.722;2023-03-01T01:18:28;8.32;;;3.50;;
54247;SDS011;40161;39.768;2.722;2023-03-01T01:20:53;9.68;;;2.92;;
54247;SDS011;40161;39.768;2.722;2023-03-01T01:23:19;12.43;;;3.33;;
54247;SDS011;40161;39.768;2.722;2023-03-01T01:25:44;11.95;;;3.42;;
54247;SDS011;40161;39.768;2.722;2023-03-01T01:28:10;9.23;;;3.42;;
54247;SDS011;40161;39.768;2.722;2023-03-01T01:30:36;10.50;;;3.13;;
54247;SDS011;40161;39.768;2.722;2023-03-01T01:33:02;10.48;;;3.08;;
54247;SDS011;40161;39.768;2.722;2023-03-01T01:35:28;9.77;;;2.65;;
54247;SDS011;40161;39.768;2.722;2023-03-01T01:37:54;9.80;;;2.50;;
54247;SDS011;40161;39.768;2.722;2023-03-01T01:40:19;9.10;;;2.65;;
54247;SDS011;40161;39.768;2.722;2023-03-01T01:42:45;13.60;;;4.18;;
54247;SDS011;40161;39.768;2.722;2023-03-01T01:47:51;16.48;;;5.65;;
54247;SDS011;40161;39.768;2.722;2023-03-01T01:50:19;16.15;;;4.72;;
54247;SDS011;40161;39.768;2.722;2023-03-01T01:52:45;10.90;;;4.15;;
54247;SDS011;40161;39.768;2.722;2023-03-01T01:55:15;10.73;;;3.90;;
54247;SDS011;40161;39.768;2.722;2023-03-01T01:57:47;7.80;;;3.20;;
54247;SDS011;40161;39.768;2.722;2023-03-01T02:00:18;9.48;;;3.45;;
54247;SDS011;40161;39.768;2.722;2023-03-01T02:05:33;8.27;;;3.03;;
54247;SDS011;40161;39.768;2.722;2023-03-01T02:08:03;8.20;;;3.05;;
54247;SDS011;40161;39.768;2.722;2023-03-01T02:10:31;8.52;;;3.30;;
54247;SDS011;40161;39.768;2.722;2023-03-01T02:13:00;7.50;;;3.05;;
54247;SDS011;40161;39.768;2.722;2023-03-01T02:15:27;8.73;;;3.03;;
54247;SDS011;40161;39.768;2.722;2023-03-01T02:17:57;11.18;;;3.53;;
54247;SDS011;40161;39.768;2.722;2023-03-01T02:20:28;8.13;;;2.83;;
54247;SDS011;40161;39.768;2.722;2023-03-01T02:23:05;11.25;;;2.95;;
54247;SDS011;40161;39.768;2.722;2023-03-01T02:28:35;10.65;;;3.80;;
54247;SDS011;40161;39.768;2.722;2023-03-01T02:31:04;9.38;;;3.85;;
54247;SDS011;40161;39.768;2.722;2023-03-01T02:33:50;9.70;;;3.42;;
54247;SDS011;40161;39.768;2.722;2023-03-01T02:39:15;9.05;;;3.72;;
54247;SDS011;40161;39.768;2.722;2023-03-01T02:41:47;7.90;;;2.97;;
54247;SDS011;40161;39.768;2.722;2023-03-01T02:44:15;10.43;;;3.38;;
54247;SDS011;40161;39.768;2.722;2023-03-01T02:46:47;8.27;;;3.10;;
54247;SDS011;40161;39.768;2.722;2023-03-01T02:49:23;7.90;;;3.00;;
54247;SDS011;40161;39.768;2.722;2023-03-01T02:55:19;8.07;;;2.75;;
54247;SDS011;40161;39.768;2.722;2023-03-01T02:57:34;8.07;;;2.33;;
54247;SDS011;40161;39.768;2.722;2023-03-01T03:00:16;4.57;;;2.25;;
54247;SDS011;40161;39.768;2.722;2023-03-01T03:02:46;7.60;;;2.50;;
54247;SDS011;40161;39.768;2.722;2023-03-01T03:05:17;7.30;;;2.67;;
54247;SDS011;40161;39.768;2.722;2023-03-01T03:07:45;8.13;;;2.92;;
54247;SDS011;40161;39.768;2.722;2023-03-01T03:10:20;12.93;;;3.53;;
54247;SDS011;40161;39.768;2.722;2023-03-01T03:12:50;17.25;;;7.55;;
54247;SDS011;40161;39.768;2.722;2023-03-01T03:15:23;11.13;;;5.13;;
54247;SDS011;40161;39.768;2.722;2023-03-01T03:17:51;8.75;;;3.50;;
54247;SDS011;40161;39.768;2.722;2023-03-01T03:20:19;9.75;;;3.40;;
54247;SDS011;40161;39.768;2.722;2023-03-01T03:22:48;7.88;;;2.90;;
54247;SDS011;40161;39.768;2.722;2023-03-01T03:25:16;8.43;;;2.53;;
54247;SDS011;40161;39.768;2.722;2023-03-01T03:27:43;8.07;;;2.30;;
54247;SDS011;40161;39.768;2.722;2023-03-01T03:30:10;10.13;;;3.03;;
54247;SDS011;40161;39.768;2.722;2023-03-01T03:32:42;9.20;;;4.00;;
54247;SDS011;40161;39.768;2.722;2023-03-01T03:35:18;8.77;;;3.75;;
54247;SDS011;40161;39.768;2.722;2023-03-01T03:37:45;7.63;;;4.13;;
54247;SDS011;40161;39.768;2.722;2023-03-01T03:40:27;6.95;;;3.30;;
54247;SDS011;40161;39.768;2.722;2023-03-01T03:42:54;8.70;;;3.42;;
54247;SDS011;40161;39.768;2.722;2023-03-01T03:45:20;7.93;;;3.25;;
54247;SDS011;40161;39.768;2.722;2023-03-01T03:47:46;11.25;;;2.80;;
54247;SDS011;40161;39.768;2.722;2023-03-01T03:50:12;8.45;;;3.08;;
54247;SDS011;40161;39.768;2.722;2023-03-01T03:52:40;7.63;;;2.75;;
54247;SDS011;40161;39.768;2.722;2023-03-01T03:55:07;10.18;;;2.20;;
54247;SDS011;40161;39.768;2.722;2023-03-01T03:57:35;7.90;;;2.30;;
54247;SDS011;40161;39.768;2.722;2023-03-01T04:00:02;7.40;;;2.10;;
54247;SDS011;40161;39.768;2.722;2023-03-01T04:02:30;8.25;;;2.40;;
54247;SDS011;40161;39.768;2.722;2023-03-01T04:04:56;6.80;;;2.00;;
54247;SDS011;40161;39.768;2.722;2023-03-01T04:07:21;5.32;;;2.33;;
54247;SDS011;40161;39.768;2.722;2023-03-01T04:09:47;9.75;;;2.53;;
54247;SDS011;40161;39.768;2.722;2023-03-01T04:12:13;7.25;;;2.03;;
54247;SDS011;40161;39.768;2.722;2023-03-01T04:14:38;7.32;;;2.58;;
54247;SDS011;40161;39.768;2.722;2023-03-01T04:17:04;8.32;;;2.40;;
54247;SDS011;40161;39.768;2.722;2023-03-01T04:19:33;5.97;;;1.67;;
54247;SDS011;40161;39.768;2.722;2023-03-01T04:22:03;4.43;;;1.70;;
54247;SDS011;40161;39.768;2.722;2023-03-01T04:24:37;7.13;;;2.03;;
54247;SDS011;40161;39.768;2.722;2023-03-01T04:27:02;7.55;;;2.15;;
54247;SDS011;40161;39.768;2.722;2023-03-01T04:29:28;7.10;;;2.67;;
54247;SDS011;40161;39.768;2.722;2023-03-01T04:31:54;6.07;;;2.65;;
54247;SDS011;40161;39.768;2.722;2023-03-01T04:34:20;4.95;;;2.72;;
54247;SDS011;40161;39.768;2.722;2023-03-01T04:36:46;7.13;;;1.90;;
54247;SDS011;40161;39.768;2.722;2023-03-01T04:39:11;8.45;;;2.40;;
54247;SDS011;40161;39.768;2.722;2023-03-01T04:41:38;13.15;;;4.93;;
54247;SDS011;40161;39.768;2.722;2023-03-01T04:44:04;7.88;;;2.90;;
54247;SDS011;40161;39.768;2.722;2023-03-01T04:46:34;6.25;;;2.10;;
54247;SDS011;40161;39.768;2.722;2023-03-01T04:49:01;4.63;;;1.52;;
54247;SDS011;40161;39.768;2.722;2023-03-01T04:51:27;6.70;;;1.75;;
54247;SDS011;40161;39.768;2.722;2023-03-01T04:53:53;7.47;;;1.73;;
54247;SDS011;40161;39.768;2.722;2023-03-01T04:56:18;6.10;;;1.42;;
54247;SDS011;40161;39.768;2.722;2023-03-01T04:58:44;10.63;;;2.50;;
54247;SDS011;40161;39.768;2.722;2023-03-01T05:01:11;8.15;;;3.50;;
54247;SDS011;40161;39.768;2.722;2023-03-01T05:03:43;13.30;;;5.85;;
54247;SDS011;40161;39.768;2.722;2023-03-01T05:06:10;14.00;;;4.75;;
54247;SDS011;40161;39.768;2.722;2023-03-01T05:08:36;9.60;;;2.35;;
54247;SDS011;40161;39.768;2.722;2023-03-01T05:11:03;5.78;;;2.15;;
54247;SDS011;40161;39.768;2.722;2023-03-01T05:13:28;7.10;;;2.47;;
54247;SDS011;40161;39.768;2.722;2023-03-01T05:15:55;4.75;;;2.10;;
54247;SDS011;40161;39.768;2.722;2023-03-01T05:18:24;5.93;;;2.05;;
54247;SDS011;40161;39.768;2.722;2023-03-01T05:21:01;7.18;;;2.63;;
54247;SDS011;40161;39.768;2.722;2023-03-01T05:23:31;9.20;;;3.70;;
54247;SDS011;40161;39.768;2.722;2023-03-01T05:25:58;11.70;;;3.97;;
54247;SDS011;40161;39.768;2.722;2023-03-01T05:28:25;7.03;;;2.90;;
54247;SDS011;40161;39.768;2.722;2023-03-01T05:30:53;9.20;;;4.25;;
54247;SDS011;40161;39.768;2.722;2023-03-01T05:33:19;13.73;;;6.55;;
54247;SDS011;40161;39.768;2.722;2023-03-01T05:35:47;12.75;;;5.35;;
54247;SDS011;40161;39.768;2.722;2023-03-01T05:38:14;8.48;;;3.55;;
54247;SDS011;40161;39.768;2.722;2023-03-01T05:40:44;8.00;;;2.95;;
54247;SDS011;40161;39.768;2.722;2023-03-01T05:43:11;8.13;;;3.58;;
54247;SDS011;40161;39.768;2.722;2023-03-01T05:45:37;15.43;;;6.80;;
54247;SDS011;40161;39.768;2.722;2023-03-01T05:48:04;8.63;;;4.03;;
54247;SDS011;40161;39.768;2.722;2023-03-01T05:50:34;8.07;;;2.65;;
54247;SDS011;40161;39.768;2.722;2023-03-01T05:55:30;6.07;;;3.30;;
54247;SDS011;40161;39.768;2.722;2023-03-01T05:58:04;7.78;;;3.97;;
54247;SDS011;40161;39.768;2.722;2023-03-01T06:00:31;6.10;;;2.40;;
54247;SDS011;40161;39.768;2.722;2023-03-01T06:02:57;6.90;;;2.65;;
54247;SDS011;40161;39.768;2.722;2023-03-01T06:05:23;10.75;;;5.22;;
54247;SDS011;40161;39.768;2.722;2023-03-01T06:07:50;12.57;;;5.28;;
54247;SDS011;40161;39.768;2.722;2023-03-01T06:10:18;10.20;;;3.13;;
54247;SDS011;40161;39.768;2.722;2023-03-01T06:12:45;5.55;;;2.30;;
54247;SDS011;40161;39.768;2.722;2023-03-01T06:15:12;5.40;;;2.17;;
54247;SDS011;40161;39.768;2.722;2023-03-01T06:17:40;5.65;;;2.33;;
54247;SDS011;40161;39.768;2.722;2023-03-01T06:20:08;7.35;;;3.13;;
54247;SDS011;40161;39.768;2.722;2023-03-01T06:25:05;5.20;;;2.33;;
54247;SDS011;40161;39.768;2.722;2023-03-01T06:27:31;7.20;;;1.90;;
54247;SDS011;40161;39.768;2.722;2023-03-01T06:29:56;6.40;;;2.60;;
54247;SDS011;40161;39.768;2.722;2023-03-01T06:32:22;7.53;;;2.25;;
54247;SDS011;40161;39.768;2.722;2023-03-01T06:34:47;7.40;;;2.75;;
54247;SDS011;40161;39.768;2.722;2023-03-01T06:37:13;10.88;;;4.82;;
54247;SDS011;40161;39.768;2.722;2023-03-01T06:39:38;7.63;;;3.47;;
54247;SDS011;40161;39.768;2.722;2023-03-01T06:42:04;6.82;;;3.20;;
54247;SDS011;40161;39.768;2.722;2023-03-01T06:44:30;5.30;;;2.80;;
54247;SDS011;40161;39.768;2.722;2023-03-01T06:46:56;6.45;;;3.13;;
54247;SDS011;40161;39.768;2.722;2023-03-01T06:49:21;9.25;;;4.05;;
54247;SDS011;40161;39.768;2.722;2023-03-01T06:51:47;7.38;;;3.13;;
54247;SDS011;40161;39.768;2.722;2023-03-01T06:54:12;11.05;;;3.10;;
54247;SDS011;40161;39.768;2.722;2023-03-01T06:56:38;7.75;;;3.83;;
54247;SDS011;40161;39.768;2.722;2023-03-01T06:59:04;7.40;;;3.17;;
54247;SDS011;40161;39.768;2.722;2023-03-01T07:01:30;8.20;;;3.70;;
54247;SDS011;40161;39.768;2.722;2023-03-01T07:03:56;6.63;;;2.85;;
54247;SDS011;40161;39.768;2.722;2023-03-01T07:06:22;5.63;;;2.72;;
54247;SDS011;40161;39.768;2.722;2023-03-01T07:08:48;6.00;;;3.03;;
54247;SDS011;40161;39.768;2.722;2023-03-01T07:11:14;6.38;;;2.70;;
54247;SDS011;40161;39.768;2.722;2023-03-01T07:13:39;7.72;;;2.70;;
54247;SDS011;40161;39.768;2.722;2023-03-01T07:16:05;5.78;;;2.75;;
54247;SDS011;40161;39.768;2.722;2023-03-01T07:18:31;6.03;;;2.83;;
54247;SDS011;40161;39.768;2.722;2023-03-01T07:20:57;6.63;;;3.85;;
54247;SDS011;40161;39.768;2.722;2023-03-01T07:23:22;6.63;;;3.92;;
54247;SDS011;40161;39.768;2.722;2023-03-01T07:25:52;9.38;;;4.70;;
54247;SDS011;40161;39.768;2.722;2023-03-01T07:28:19;9.23;;;5.35;;
54247;SDS011;40161;39.768;2.722;2023-03-01T07:30:45;8.13;;;3.53;;
54247;SDS011;40161;39.768;2.722;2023-03-01T07:33:11;6.57;;;3.28;;
54247;SDS011;40161;39.768;2.722;2023-03-01T07:35:36;6.35;;;3.10;;
54247;SDS011;40161;39.768;2.722;2023-03-01T07:38:02;10.93;;;3.65;;
54247;SDS011;40161;39.768;2.722;2023-03-01T07:40:27;5.82;;;2.90;;
54247;SDS011;40161;39.768;2.722;2023-03-01T07:42:56;6.68;;;3.45;;
54247;SDS011;40161;39.768;2.722;2023-03-01T07:45:23;16.20;;;10.20;;
54247;SDS011;40161;39.768;2.722;2023-03-01T07:47:53;16.30;;;8.88;;
54247;SDS011;40161;39.768;2.722;2023-03-01T07:50:19;32.50;;;21.40;;
54247;SDS011;40161;39.768;2.722;2023-03-01T07:52:45;38.47;;;29.45;;
54247;SDS011;40161;39.768;2.722;2023-03-01T07:55:11;24.35;;;18.67;;
54247;SDS011;40161;39.768;2.722;2023-03-01T07:57:37;17.52;;;10.10;;
54247;SDS011;40161;39.768;2.722;2023-03-01T08:00:03;11.60;;;6.43;;
54247;SDS011;40161;39.768;2.722;2023-03-01T08:02:29;6.78;;;4.10;;
54247;SDS011;40161;39.768;2.722;2023-03-01T08:04:55;7.22;;;4.15;;
54247;SDS011;40161;39.768;2.722;2023-03-01T08:07:21;9.18;;;4.60;;
54247;SDS011;40161;39.768;2.722;2023-03-01T08:09:46;8.20;;;4.95;;
54247;SDS011;40161;39.768;2.722;2023-03-01T08:12:12;7.97;;;4.18;;
54247;SDS011;40161;39.768;2.722;2023-03-01T08:14:37;8.50;;;3.90;;
54247;SDS011;40161;39.768;2.722;2023-03-01T08:17:03;9.27;;;4.55;;
54247;SDS011;40161;39.768;2.722;2023-03-01T08:19:28;7.55;;;4.00;;
54247;SDS011;40161;39.768;2.722;2023-03-01T08:21:54;9.45;;;5.47;;
54247;SDS011;40161;39.768;2.722;2023-03-01T08:24:23;10.07;;;6.32;;
54247;SDS011;40161;39.768;2.722;2023-03-01T08:26:48;11.32;;;5.90;;
54247;SDS011;40161;39.768;2.722;2023-03-01T08:29:14;7.15;;;5.28;;
54247;SDS011;40161;39.768;2.722;2023-03-01T08:31:40;8.40;;;4.78;;
54247;SDS011;40161;39.768;2.722;2023-03-01T08:34:10;6.75;;;4.40;;
54247;SDS011;40161;39.768;2.722;2023-03-01T08:36:39;7.18;;;4.95;;
54247;SDS011;40161;39.768;2.722;2023-03-01T08:39:07;10.55;;;5.60;;
54247;SDS011;40161;39.768;2.722;2023-03-01T08:41:34;9.07;;;5.93;;
54247;SDS011;40161;39.768;2.722;2023-03-01T08:44:00;13.05;;;5.38;;
54247;SDS011;40161;39.768;2.722;2023-03-01T08:46:29;10.77;;;5.85;;
54247;SDS011;40161;39.768;2.722;2023-03-01T08:48:56;11.98;;;8.15;;
54247;SDS011;40161;39.768;2.722;2023-03-01T08:51:22;10.10;;;6.28;;
54247;SDS011;40161;39.768;2.722;2023-03-01T08:53:49;7.47;;;4.20;;
54247;SDS011;40161;39.768;2.722;2023-03-01T08:56:15;8.05;;;3.10;;
54247;SDS011;40161;39.768;2.722;2023-03-01T08:58:44;9.57;;;4.13;;
54247;SDS011;40161;39.768;2.722;2023-03-01T09:01:12;7.53;;;3.83;;
54247;SDS011;40161;39.768;2.722;2023-03-01T09:03:39;5.75;;;3.50;;
54247;SDS011;40161;39.768;2.722;2023-03-01T09:06:06;8.02;;;4.20;;
54247;SDS011;40161;39.768;2.722;2023-03-01T09:08:36;7.18;;;4.03;;
54247;SDS011;40161;39.768;2.722;2023-03-01T09:11:04;10.13;;;4.18;;
54247;SDS011;40161;39.768;2.722;2023-03-01T09:13:32;7.07;;;4.22;;
54247;SDS011;40161;39.768;2.722;2023-03-01T09:15:58;8.65;;;2.10;;
54247;SDS011;40161;39.768;2.722;2023-03-01T09:18:25;5.72;;;2.30;;
54247;SDS011;40161;39.768;2.722;2023-03-01T09:20:51;5.82;;;2.83;;
54247;SDS011;40161;39.768;2.722;2023-03-01T09:23:16;6.10;;;3.58;;
54247;SDS011;40161;39.768;2.722;2023-03-01T09:25:42;5.57;;;2.55;;
54247;SDS011;40161;39.768;2.722;2023-03-01T09:28:07;7.93;;;3.20;;
54247;SDS011;40161;39.768;2.722;2023-03-01T09:30:33;8.57;;;2.63;;
54247;SDS011;40161;39.768;2.722;2023-03-01T09:32:58;4.80;;;1.80;;
54247;SDS011;40161;39.768;2.722;2023-03-01T09:35:24;4.80;;;1.77;;
54247;SDS011;40161;39.768;2.722;2023-03-01T09:37:49;4.68;;;1.75;;
54247;SDS011;40161;39.768;2.722;2023-03-01T09:40:16;3.33;;;1.52;;
54247;SDS011;40161;39.768;2.722;2023-03-01T09:42:52;3.45;;;1.60;;
54247;SDS011;40161;39.768;2.722;2023-03-01T09:45:29;5.00;;;2.35;;
54247;SDS011;40161;39.768;2.722;2023-03-01T09:48:00;5.88;;;2.13;;
54247;SDS011;40161;39.768;2.722;2023-03-01T09:50:28;5.65;;;1.90;;
54247;SDS011;40161;39.768;2.722;2023-03-01T09:53:01;7.40;;;3.22;;
54247;SDS011;40161;39.768;2.722;2023-03-01T10:01:26;12.07;;;4.15;;
54247;SDS011;40161;39.768;2.722;2023-03-01T10:09:41;4.78;;;1.77;;
54247;SDS011;40161;39.768;2.722;2023-03-01T10:12:10;4.75;;;2.13;;
54247;SDS011;40161;39.768;2.722;2023-03-01T10:17:47;6.65;;;1.77;;
54247;SDS011;40161;39.768;2.722;2023-03-01T10:22:51;4.90;;;2.22;;
54247;SDS011;40161;39.768;2.722;2023-03-01T10:25:21;4.35;;;1.70;;
54247;SDS011;40161;39.768;2.722;2023-03-01T10:28:29;5.47;;;1.60;;
54247;SDS011;40161;39.768;2.722;2023-03-01T10:31:06;3.40;;;1.70;;
54247;SDS011;40161;39.768;2.722;2023-03-01T10:33:40;6.90;;;2.60;;
54247;SDS011;40161;39.768;2.722;2023-03-01T10:36:07;5.90;;;1.80;;
54247;SDS011;40161;39.768;2.722;2023-03-01T10:38:54;6.05;;;1.63;;
54247;SDS011;40161;39.768;2.722;2023-03-01T10:41:22;4.57;;;1.50;;
54247;SDS011;40161;39.768;2.722;2023-03-01T10:43:50;5.40;;;1.77;;
54247;SDS011;40161;39.768;2.722;2023-03-01T10:51:43;7.25;;;1.90;;
54247;SDS011;40161;39.768;2.722;2023-03-01T10:57:00;5.20;;;1.67;;
54247;SDS011;40161;39.768;2.722;2023-03-01T10:59:37;8.27;;;2.30;;
54247;SDS011;40161;39.768;2.722;2023-03-01T11:02:17;5.20;;;1.70;;
54247;SDS011;40161;39.768;2.722;2023-03-01T11:07:27;9.25;;;2.95;;
54247;SDS011;40161;39.768;2.722;2023-03-01T11:09:52;7.82;;;2.60;;
54247;SDS011;40161;39.768;2.722;2023-03-01T11:12:18;7.90;;;2.70;;
54247;SDS011;40161;39.768;2.722;2023-03-01T11:14:55;6.32;;;2.45;;
54247;SDS011;40161;39.768;2.722;2023-03-01T11:22:50;6.18;;;1.83;;
54247;SDS011;40161;39.768;2.722;2023-03-01T11:25:20;4.25;;;1.52;;
54247;SDS011;40161;39.768;2.722;2023-03-01T11:27:52;3.15;;;1.48;;
54247;SDS011;40161;39.768;2.722;2023-03-01T11:33:23;5.72;;;1.88;;
54247;SDS011;40161;39.768;2.722;2023-03-01T11:38:51;5.18;;;1.50;;
54247;SDS011;40161;39.768;2.722;2023-03-01T11:41:23;5.32;;;1.70;;
54247;SDS011;40161;39.768;2.722;2023-03-01T11:46:34;3.92;;;1.70;;
54247;SDS011;40161;39.768;2.722;2023-03-01T11:49:35;5.50;;;1.80;;
54247;SDS011;40161;39.768;2.722;2023-03-01T11:52:30;3.25;;;1.50;;
54247;SDS011;40161;39.768;2.722;2023-03-01T12:03:33;4.70;;;1.70;;
54247;SDS011;40161;39.768;2.722;2023-03-01T12:09:15;4.53;;;2.10;;
54247;SDS011;40161;39.768;2.722;2023-03-01T12:12:04;4.30;;;1.85;;
54247;SDS011;40161;39.768;2.722;2023-03-01T12:14:42;7.53;;;2.67;;
54247;SDS011;40161;39.768;2.722;2023-03-01T12:26:36;4.40;;;1.88;;
54247;SDS011;40161;39.768;2.722;2023-03-01T12:29:38;7.38;;;3.13;;
54247;SDS011;40161;39.768;2.722;2023-03-01T12:35:02;4.72;;;2.05;;
54247;SDS011;40161;39.768;2.722;2023-03-01T12:37:51;6.05;;;1.92;;
54247;SDS011;40161;39.768;2.722;2023-03-01T12:43:22;3.70;;;1.92;;
54247;SDS011;40161;39.768;2.722;2023-03-01T12:46:21;4.78;;;1.85;;
54247;SDS011;40161;39.768;2.722;2023-03-01T12:49:09;7.15;;;2.50;;
54247;SDS011;40161;39.768;2.722;2023-03-01T12:51:37;5.88;;;2.08;;
54247;SDS011;40161;39.768;2.722;2023-03-01T12:54:26;5.97;;;1.55;;
54247;SDS011;40161;39.768;2.722;2023-03-01T12:56:53;5.18;;;1.85;;
54247;SDS011;40161;39.768;2.722;2023-03-01T13:02:12;4.40;;;2.30;;
54247;SDS011;40161;39.768;2.722;2023-03-01T13:07:41;5.22;;;2.40;;
54247;SDS011;40161;39.768;2.722;2023-03-01T13:17:49;2.88;;;1.30;;
54247;SDS011;40161;39.768;2.722;2023-03-01T13:20:21;4.22;;;1.50;;
54247;SDS011;40161;39.768;2.722;2023-03-01T13:23:51;4.00;;;1.77;;
54247;SDS011;40161;39.768;2.722;2023-03-01T13:26:19;5.88;;;2.03;;
54247;SDS011;40161;39.768;2.722;2023-03-01T13:28:46;9.40;;;3.20;;
54247;SDS011;40161;39.768;2.722;2023-03-01T13:33:49;4.43;;;1.88;;
54247;SDS011;40161;39.768;2.722;2023-03-01T13:39:00;7.00;;;2.50;;
54247;SDS011;40161;39.768;2.722;2023-03-01T13:46:45;3.20;;;2.03;;
54247;SDS011;40161;39.768;2.722;2023-03-01T13:49:16;5.60;;;1.70;;
54247;SDS011;40161;39.768;2.722;2023-03-01T13:51:48;13.40;;;7.13;;
54247;SDS011;40161;39.768;2.722;2023-03-01T13:54:16;4.95;;;2.20;;
54247;SDS011;40161;39.768;2.722;2023-03-01T13:56:54;6.25;;;2.15;;
54247;SDS011;40161;39.768;2.722;2023-03-01T13:59:21;5.72;;;2.70;;
54247;SDS011;40161;39.768;2.722;2023-03-01T14:01:52;6.50;;;2.28;;
54247;SDS011;40161;39.768;2.722;2023-03-01T14:04:26;9.52;;;2.90;;
54247;SDS011;40161;39.768;2.722;2023-03-01T14:07:12;5.27;;;1.90;;
54247;SDS011;40161;39.768;2.722;2023-03-01T14:09:42;4.93;;;2.20;;
54247;SDS011;40161;39.768;2.722;2023-03-01T14:17:52;5.40;;;1.90;;
54247;SDS011;40161;39.768;2.722;2023-03-01T14:20:40;3.35;;;1.50;;
54247;SDS011;40161;39.768;2.722;2023-03-01T14:23:15;5.55;;;1.80;;
54247;SDS011;40161;39.768;2.722;2023-03-01T14:25:48;5.97;;;2.50;;
54247;SDS011;40161;39.768;2.722;2023-03-01T14:28:26;4.72;;;1.92;;
54247;SDS011;40161;39.768;2.722;2023-03-01T14:30:55;3.95;;;1.77;;
54247;SDS011;40161;39.768;2.722;2023-03-01T14:33:28;7.13;;;1.85;;
54247;SDS011;40161;39.768;2.722;2023-03-01T14:38:34;5.88;;;1.75;;
54247;SDS011;40161;39.768;2.722;2023-03-01T14:41:24;5.28;;;1.90;;
54247;SDS011;40161;39.768;2.722;2023-03-01T14:46:31;4.43;;;1.90;;
54247;SDS011;40161;39.768;2.722;2023-03-01T14:49:04;3.78;;;1.80;;
54247;SDS011;40161;39.768;2.722;2023-03-01T14:51:39;3.95;;;1.80;;
54247;SDS011;40161;39.768;2.722;2023-03-01T14:54:25;3.97;;;2.10;;
54247;SDS011;40161;39.768;2.722;2023-03-01T14:56:57;4.75;;;2.30;;
54247;SDS011;40161;39.768;2.722;2023-03-01T14:59:25;4.25;;;1.77;;
54247;SDS011;40161;39.768;2.722;2023-03-01T15:01:51;5.10;;;1.65;;
54247;SDS011;40161;39.768;2.722;2023-03-01T15:04:20;3.95;;;1.85;;
54247;SDS011;40161;39.768;2.722;2023-03-01T15:06:50;5.03;;;1.75;;
54247;SDS011;40161;39.768;2.722;2023-03-01T15:09:17;4.47;;;1.67;;
54247;SDS011;40161;39.768;2.722;2023-03-01T15:11:43;8.65;;;2.42;;
54247;SDS011;40161;39.768;2.722;2023-03-01T15:19:55;10.77;;;4.80;;
54247;SDS011;40161;39.768;2.722;2023-03-01T15:22:21;3.72;;;1.60;;
54247;SDS011;40161;39.768;2.722;2023-03-01T15:24:48;12.93;;;5.57;;
54247;SDS011;40161;39.768;2.722;2023-03-01T15:27:15;7.38;;;2.67;;
54247;SDS011;40161;39.768;2.722;2023-03-01T15:29:52;4.07;;;1.77;;
54247;SDS011;40161;39.768;2.722;2023-03-01T15:34:49;2.47;;;1.30;;
54247;SDS011;40161;39.768;2.722;2023-03-01T15:40:20;6.47;;;2.60;;
54247;SDS011;40161;39.768;2.722;2023-03-01T15:42:56;4.88;;;2.00;;
54247;SDS011;40161;39.768;2.722;2023-03-01T15:45:24;4.45;;;1.27;;
54247;SDS011;40161;39.768;2.722;2023-03-01T15:47:56;5.43;;;1.80;;
54247;SDS011;40161;39.768;2.722;2023-03-01T15:50:30;7.20;;;2.53;;
54247;SDS011;40161;39.768;2.722;2023-03-01T15:52:58;3.85;;;1.88;;
54247;SDS011;40161;39.768;2.722;2023-03-01T15:55:26;7.35;;;1.70;;
54247;SDS011;40161;39.768;2.722;2023-03-01T15:57:58;5.25;;;1.83;;
54247;SDS011;40161;39.768;2.722;2023-03-01T16:00:31;6.13;;;2.42;;
54247;SDS011;40161;39.768;2.722;2023-03-01T16:02:57;4.13;;;2.22;;
54247;SDS011;40161;39.768;2.722;2023-03-01T16:05:28;8.38;;;2.30;;
54247;SDS011;40161;39.768;2.722;2023-03-01T16:07:59;4.70;;;2.10;;
54247;SDS011;40161;39.768;2.722;2023-03-01T16:10:25;6.15;;;2.50;;
54247;SDS011;40161;39.768;2.722;2023-03-01T16:12:52;4.07;;;2.17;;
54247;SDS011;40161;39.768;2.722;2023-03-01T16:15:19;5.80;;;2.22;;
54247;SDS011;40161;39.768;2.722;2023-03-01T16:17:46;4.40;;;2.08;;
54247;SDS011;40161;39.768;2.722;2023-03-01T16:20:12;5.22;;;2.10;;
54247;SDS011;40161;39.768;2.722;2023-03-01T16:22:41;6.00;;;2.47;;
54247;SDS011;40161;39.768;2.722;2023-03-01T16:25:09;7.50;;;2.50;;
54247;SDS011;40161;39.768;2.722;2023-03-01T16:27:35;4.85;;;2.20;;
54247;SDS011;40161;39.768;2.722;2023-03-01T16:30:01;6.25;;;2.30;;
54247;SDS011;40161;39.768;2.722;2023-03-01T16:32:26;4.85;;;2.20;;
54247;SDS011;40161;39.768;2.722;2023-03-01T16:34:52;5.85;;;2.70;;
54247;SDS011;40161;39.768;2.722;2023-03-01T16:37:18;5.28;;;2.30;;
54247;SDS011;40161;39.768;2.722;2023-03-01T16:39:44;5.13;;;2.40;;
54247;SDS011;40161;39.768;2.722;2023-03-01T16:42:09;5.72;;;3.17;;
54247;SDS011;40161;39.768;2.722;2023-03-01T16:44:35;5.75;;;3.10;;
54247;SDS011;40161;39.768;2.722;2023-03-01T16:47:03;5.22;;;3.10;;
54247;SDS011;40161;39.768;2.722;2023-03-01T16:49:31;6.43;;;3.55;;
54247;SDS011;40161;39.768;2.722;2023-03-01T16:51:57;6.70;;;3.90;;
54247;SDS011;40161;39.768;2.722;2023-03-01T16:54:24;5.63;;;3.60;;
54247;SDS011;40161;39.768;2.722;2023-03-01T16:56:49;8.98;;;3.90;;
54247;SDS011;40161;39.768;2.722;2023-03-01T16:59:15;6.40;;;4.68;;
54247;SDS011;40161;39.768;2.722;2023-03-01T17:01:43;7.13;;;5.25;;
54247;SDS011;40161;39.768;2.722;2023-03-01T17:04:12;8.80;;;6.35;;
54247;SDS011;40161;39.768;2.722;2023-03-01T17:06:38;11.15;;;6.13;;
54247;SDS011;40161;39.768;2.722;2023-03-01T17:09:04;8.57;;;4.60;;
54247;SDS011;40161;39.768;2.722;2023-03-01T17:11:29;9.13;;;4.90;;